sensor_id;sensor_type;location;lat;lon;timestamp;temperature;humidity
21115;DHT22;10715;48.546;9.896;2022-12-11T00:00:09;-2.80;99.90
21115;DHT22;10715;48.546;9.896;2022-12-11T00:02:34;-2.80;99.90
21115;DHT22;10715;48.546;9.896;2022-12-11T00:05:00;-2.80;99.90
21115;DHT22;10715;48.546;9.896;2022-12-11T00:07:26;-2.80;99.90
21115;DHT22;10715;48.546;9.896;2022-12-11T00:09:52;-2.80;99.90
21115;DHT22;10715;48.546;9.896;2022-12-11T00:12:17;-2.80;99.90
21115;DHT22;10715;48.546;9.896;2022-12-11T00:14:43;-2.80;99.90
21115;DHT22;10715;48.546;9.896;2022-12-11T00:17:09;-2.80;99.90
21115;DHT22;10715;48.546;9.896;2022-12-11T00:19:34;-2.80;99.90
21115;DHT22;10715;48.546;9.896;2022-12-11T00:22:00;-2.80;99.90
21115;DHT22;10715;48.546;9.896;2022-12-11T00:24:26;-2.80;99.90
21115;DHT22;10715;48.546;9.896;2022-12-11T00:26:51;-2.90;99.90
21115;DHT22;10715;48.546;9.896;2022-12-11T00:29:17;-2.90;99.90
21115;DHT22;10715;48.546;9.896;2022-12-11T00:31:43;-2.90;99.90
21115;DHT22;10715;48.546;9.896;2022-12-11T00:34:09;-2.90;99.90
21115;DHT22;10715;48.546;9.896;2022-12-11T00:36:36;-3.00;99.90
21115;DHT22;10715;48.546;9.896;2022-12-11T00:39:03;-3.00;99.90
21115;DHT22;10715;48.546;9.896;2022-12-11T00:41:29;-3.00;99.90
21115;DHT22;10715;48.546;9.896;2022-12-11T00:43:55;-3.00;99.90
21115;DHT22;10715;48.546;9.896;2022-12-11T00:46:21;-3.00;99.90
21115;DHT22;10715;48.546;9.896;2022-12-11T00:48:47;-3.00;99.90
21115;DHT22;10715;48.546;9.896;2022-12-11T00:51:15;-3.00;99.90
21115;DHT22;10715;48.546;9.896;2022-12-11T00:53:41;-3.00;99.90
21115;DHT22;10715;48.546;9.896;2022-12-11T00:56:12;-3.00;99.90
21115;DHT22;10715;48.546;9.896;2022-12-11T00:58:37;-3.00;99.90
21115;DHT22;10715;48.546;9.896;2022-12-11T01:01:08;-3.00;99.90
21115;DHT22;10715;48.546;9.896;2022-12-11T01:03:35;-3.00;99.90
21115;DHT22;10715;48.546;9.896;2022-12-11T01:06:00;-3.00;99.90
21115;DHT22;10715;48.546;9.896;2022-12-11T01:08:26;-3.00;99.90
21115;DHT22;10715;48.546;9.896;2022-12-11T01:11:00;-3.00;99.90
21115;DHT22;10715;48.546;9.896;2022-12-11T01:13:26;-3.00;99.90
21115;DHT22;10715;48.546;9.896;2022-12-11T01:15:52;-2.90;99.90
21115;DHT22;10715;48.546;9.896;2022-12-11T01:18:17;-3.00;99.90
21115;DHT22;10715;48.546;9.896;2022-12-11T01:20:43;-3.00;99.90
21115;DHT22;10715;48.546;9.896;2022-12-11T01:23:11;-3.00;99.90
21115;DHT22;10715;48.546;9.896;2022-12-11T01:25:37;-3.10;99.90
21115;DHT22;10715;48.546;9.896;2022-12-11T01:28:03;-3.00;99.90
21115;DHT22;10715;48.546;9.896;2022-12-11T01:30:29;-3.00;99.90
21115;DHT22;10715;48.546;9.896;2022-12-11T01:32:55;-3.00;99.90
21115;DHT22;10715;48.546;9.896;2022-12-11T01:35:21;-3.00;99.90
21115;DHT22;10715;48.546;9.896;2022-12-11T01:37:47;-3.00;99.90
21115;DHT22;10715;48.546;9.896;2022-12-11T01:40:14;-3.00;99.90
21115;DHT22;10715;48.546;9.896;2022-12-11T01:42:41;-2.90;99.90
21115;DHT22;10715;48.546;9.896;2022-12-11T01:45:41;-2.90;99.90
21115;DHT22;10715;48.546;9.896;2022-12-11T01:48:18;-2.90;99.90
21115;DHT22;10715;48.546;9.896;2022-12-11T01:51:05;-2.90;99.90
21115;DHT22;10715;48.546;9.896;2022-12-11T01:53:38;-2.90;99.90
21115;DHT22;10715;48.546;9.896;2022-12-11T01:56:05;-2.90;99.90
21115;DHT22;10715;48.546;9.896;2022-12-11T01:58:38;-2.90;99.90
21115;DHT22;10715;48.546;9.896;2022-12-11T02:01:05;-2.90;99.90
21115;DHT22;10715;48.546;9.896;2022-12-11T02:03:30;-2.80;99.90
21115;DHT22;10715;48.546;9.896;2022-12-11T02:06:00;-2.90;99.90
21115;DHT22;10715;48.546;9.896;2022-12-11T02:08:27;-2.90;99.90
21115;DHT22;10715;48.546;9.896;2022-12-11T02:11:19;-2.90;99.90
21115;DHT22;10715;48.546;9.896;2022-12-11T02:13:53;-2.90;99.90
21115;DHT22;10715;48.546;9.896;2022-12-11T02:16:40;-2.90;99.90
21115;DHT22;10715;48.546;9.896;2022-12-11T02:19:17;-2.90;99.90
21115;DHT22;10715;48.546;9.896;2022-12-11T02:21:49;-2.90;99.90
21115;DHT22;10715;48.546;9.896;2022-12-11T02:27:39;-2.90;99.90
21115;DHT22;10715;48.546;9.896;2022-12-11T02:30:09;-3.00;99.90
21115;DHT22;10715;48.546;9.896;2022-12-11T02:32:57;-3.00;99.90
21115;DHT22;10715;48.546;9.896;2022-12-11T02:35:30;-3.00;99.90
21115;DHT22;10715;48.546;9.896;2022-12-11T02:38:02;-3.10;99.90
21115;DHT22;10715;48.546;9.896;2022-12-11T02:40:31;-3.10;99.90
21115;DHT22;10715;48.546;9.896;2022-12-11T02:43:02;-3.10;99.90
21115;DHT22;10715;48.546;9.896;2022-12-11T02:45:30;-3.10;99.90
21115;DHT22;10715;48.546;9.896;2022-12-11T02:47:57;-3.10;99.90
21115;DHT22;10715;48.546;9.896;2022-12-11T02:50:26;-3.10;99.90
21115;DHT22;10715;48.546;9.896;2022-12-11T02:52:54;-3.10;99.90
21115;DHT22;10715;48.546;9.896;2022-12-11T02:55:22;-3.10;99.90
21115;DHT22;10715;48.546;9.896;2022-12-11T02:58:03;-3.10;99.90
21115;DHT22;10715;48.546;9.896;2022-12-11T03:00:30;-3.10;99.90
21115;DHT22;10715;48.546;9.896;2022-12-11T03:02:56;-3.10;99.90
21115;DHT22;10715;48.546;9.896;2022-12-11T03:05:22;-3.10;99.90
21115;DHT22;10715;48.546;9.896;2022-12-11T03:07:48;-3.20;99.90
21115;DHT22;10715;48.546;9.896;2022-12-11T03:10:16;-3.20;99.90
21115;DHT22;10715;48.546;9.896;2022-12-11T03:12:49;-3.10;99.90
21115;DHT22;10715;48.546;9.896;2022-12-11T03:15:18;-3.20;99.90
21115;DHT22;10715;48.546;9.896;2022-12-11T03:18:08;-3.20;99.90
21115;DHT22;10715;48.546;9.896;2022-12-11T03:26:15;-3.20;99.90
21115;DHT22;10715;48.546;9.896;2022-12-11T03:29:02;-3.20;99.90
21115;DHT22;10715;48.546;9.896;2022-12-11T03:31:41;-3.20;99.90
21115;DHT22;10715;48.546;9.896;2022-12-11T03:34:15;-3.20;99.90
21115;DHT22;10715;48.546;9.896;2022-12-11T03:36:43;-3.20;99.90
21115;DHT22;10715;48.546;9.896;2022-12-11T03:39:15;-3.20;99.90
21115;DHT22;10715;48.546;9.896;2022-12-11T03:41:44;-3.20;99.90
21115;DHT22;10715;48.546;9.896;2022-12-11T03:44:11;-3.20;99.90
21115;DHT22;10715;48.546;9.896;2022-12-11T03:46:39;-3.20;99.90
21115;DHT22;10715;48.546;9.896;2022-12-11T03:49:09;-3.20;99.90
21115;DHT22;10715;48.546;9.896;2022-12-11T03:51:38;-3.30;99.90
21115;DHT22;10715;48.546;9.896;2022-12-11T03:54:04;-3.40;99.90
21115;DHT22;10715;48.546;9.896;2022-12-11T03:56:32;-3.50;99.90
21115;DHT22;10715;48.546;9.896;2022-12-11T03:58:59;-3.60;99.90
21115;DHT22;10715;48.546;9.896;2022-12-11T04:01:25;-3.70;99.90
21115;DHT22;10715;48.546;9.896;2022-12-11T04:03:50;-3.80;99.90
21115;DHT22;10715;48.546;9.896;2022-12-11T04:06:16;-3.90;99.90
21115;DHT22;10715;48.546;9.896;2022-12-11T04:08:42;-4.00;99.90
21115;DHT22;10715;48.546;9.896;2022-12-11T04:11:08;-4.10;99.90
21115;DHT22;10715;48.546;9.896;2022-12-11T04:13:52;-4.20;99.90
21115;DHT22;10715;48.546;9.896;2022-12-11T04:16:36;-4.30;99.90
21115;DHT22;10715;48.546;9.896;2022-12-11T04:19:03;-4.40;99.90
21115;DHT22;10715;48.546;9.896;2022-12-11T04:21:47;-4.50;99.90
21115;DHT22;10715;48.546;9.896;2022-12-11T04:24:31;-4.60;99.90
21115;DHT22;10715;48.546;9.896;2022-12-11T04:26:57;-4.70;99.90
21115;DHT22;10715;48.546;9.896;2022-12-11T04:29:23;-4.80;99.90
21115;DHT22;10715;48.546;9.896;2022-12-11T04:31:49;-4.90;99.90
21115;DHT22;10715;48.546;9.896;2022-12-11T04:34:15;-4.90;99.90
21115;DHT22;10715;48.546;9.896;2022-12-11T04:36:41;-4.90;99.90
21115;DHT22;10715;48.546;9.896;2022-12-11T04:39:07;-5.00;99.90
21115;DHT22;10715;48.546;9.896;2022-12-11T04:41:33;-5.10;99.90
21115;DHT22;10715;48.546;9.896;2022-12-11T04:43:59;-5.20;99.90
21115;DHT22;10715;48.546;9.896;2022-12-11T04:46:25;-5.20;99.90
21115;DHT22;10715;48.546;9.896;2022-12-11T04:48:51;-5.20;99.90
21115;DHT22;10715;48.546;9.896;2022-12-11T04:51:18;-5.30;99.90
21115;DHT22;10715;48.546;9.896;2022-12-11T04:53:44;-5.40;99.90
21115;DHT22;10715;48.546;9.896;2022-12-11T04:56:13;-5.50;99.90
21115;DHT22;10715;48.546;9.896;2022-12-11T04:58:40;-5.50;99.90
21115;DHT22;10715;48.546;9.896;2022-12-11T05:01:12;-5.60;99.90
21115;DHT22;10715;48.546;9.896;2022-12-11T05:03:38;-5.60;99.90
21115;DHT22;10715;48.546;9.896;2022-12-11T05:06:04;-5.70;99.90
21115;DHT22;10715;48.546;9.896;2022-12-11T05:08:29;-5.70;99.90
21115;DHT22;10715;48.546;9.896;2022-12-11T05:11:00;-5.80;99.90
21115;DHT22;10715;48.546;9.896;2022-12-11T05:13:27;-5.80;99.90
21115;DHT22;10715;48.546;9.896;2022-12-11T05:15:53;-5.90;99.90
21115;DHT22;10715;48.546;9.896;2022-12-11T05:18:19;-5.90;99.90
21115;DHT22;10715;48.546;9.896;2022-12-11T05:20:44;-5.90;99.90
21115;DHT22;10715;48.546;9.896;2022-12-11T05:23:18;-5.90;99.90
21115;DHT22;10715;48.546;9.896;2022-12-11T05:25:57;-5.90;99.90
21115;DHT22;10715;48.546;9.896;2022-12-11T05:28:24;-5.90;99.90
21115;DHT22;10715;48.546;9.896;2022-12-11T05:31:05;-6.00;99.90
21115;DHT22;10715;48.546;9.896;2022-12-11T05:33:32;-5.90;99.90
21115;DHT22;10715;48.546;9.896;2022-12-11T05:35:58;-6.00;99.90
21115;DHT22;10715;48.546;9.896;2022-12-11T05:38:24;-6.00;99.90
21115;DHT22;10715;48.546;9.896;2022-12-11T05:41:01;-6.00;99.90
21115;DHT22;10715;48.546;9.896;2022-12-11T05:43:30;-6.10;99.90
21115;DHT22;10715;48.546;9.896;2022-12-11T05:45:59;-6.20;99.90
21115;DHT22;10715;48.546;9.896;2022-12-11T05:48:28;-6.20;99.90
21115;DHT22;10715;48.546;9.896;2022-12-11T05:50:59;-6.20;99.90
21115;DHT22;10715;48.546;9.896;2022-12-11T05:53:25;-6.30;99.90
21115;DHT22;10715;48.546;9.896;2022-12-11T05:55:51;-6.40;99.90
21115;DHT22;10715;48.546;9.896;2022-12-11T05:58:17;-6.40;99.90
21115;DHT22;10715;48.546;9.896;2022-12-11T06:00:43;-6.50;99.90
21115;DHT22;10715;48.546;9.896;2022-12-11T06:03:09;-6.50;99.90
21115;DHT22;10715;48.546;9.896;2022-12-11T06:05:39;-6.60;99.90
21115;DHT22;10715;48.546;9.896;2022-12-11T06:08:05;-6.60;99.90
21115;DHT22;10715;48.546;9.896;2022-12-11T06:10:30;-6.60;99.90
21115;DHT22;10715;48.546;9.896;2022-12-11T06:12:56;-6.60;99.90
21115;DHT22;10715;48.546;9.896;2022-12-11T06:15:22;-6.60;99.90
21115;DHT22;10715;48.546;9.896;2022-12-11T06:17:47;-6.60;99.90
21115;DHT22;10715;48.546;9.896;2022-12-11T06:20:13;-6.60;99.90
21115;DHT22;10715;48.546;9.896;2022-12-11T06:22:39;-6.60;99.90
21115;DHT22;10715;48.546;9.896;2022-12-11T06:25:05;-6.60;99.90
21115;DHT22;10715;48.546;9.896;2022-12-11T06:27:31;-6.50;99.90
21115;DHT22;10715;48.546;9.896;2022-12-11T06:29:56;-6.60;99.90
21115;DHT22;10715;48.546;9.896;2022-12-11T06:32:22;-6.60;99.90
21115;DHT22;10715;48.546;9.896;2022-12-11T06:34:48;-6.50;99.90
21115;DHT22;10715;48.546;9.896;2022-12-11T06:37:13;-6.50;99.90
21115;DHT22;10715;48.546;9.896;2022-12-11T06:39:39;-6.50;99.90
21115;DHT22;10715;48.546;9.896;2022-12-11T06:42:05;-6.60;99.90
21115;DHT22;10715;48.546;9.896;2022-12-11T06:44:31;-6.60;99.90
21115;DHT22;10715;48.546;9.896;2022-12-11T06:46:56;-6.60;99.90
21115;DHT22;10715;48.546;9.896;2022-12-11T06:49:22;-6.60;99.90
21115;DHT22;10715;48.546;9.896;2022-12-11T06:51:48;-6.60;99.90
21115;DHT22;10715;48.546;9.896;2022-12-11T06:54:14;-6.70;99.90
21115;DHT22;10715;48.546;9.896;2022-12-11T06:56:39;-6.60;99.90
21115;DHT22;10715;48.546;9.896;2022-12-11T06:59:05;-6.70;99.90
21115;DHT22;10715;48.546;9.896;2022-12-11T07:01:31;-6.70;99.90
21115;DHT22;10715;48.546;9.896;2022-12-11T07:03:58;-6.80;99.90
21115;DHT22;10715;48.546;9.896;2022-12-11T07:06:25;-6.90;99.90
21115;DHT22;10715;48.546;9.896;2022-12-11T07:08:52;-6.90;99.90
21115;DHT22;10715;48.546;9.896;2022-12-11T07:11:19;-7.00;99.90
21115;DHT22;10715;48.546;9.896;2022-12-11T07:13:45;-7.10;99.90
21115;DHT22;10715;48.546;9.896;2022-12-11T07:16:12;-7.10;99.90
21115;DHT22;10715;48.546;9.896;2022-12-11T07:18:45;-7.20;99.90
21115;DHT22;10715;48.546;9.896;2022-12-11T07:21:12;-7.20;99.90
21115;DHT22;10715;48.546;9.896;2022-12-11T07:23:38;-7.30;99.90
21115;DHT22;10715;48.546;9.896;2022-12-11T07:26:06;-7.30;99.90
21115;DHT22;10715;48.546;9.896;2022-12-11T07:28:33;-7.40;99.90
21115;DHT22;10715;48.546;9.896;2022-12-11T07:30:59;-7.40;99.90
21115;DHT22;10715;48.546;9.896;2022-12-11T07:33:25;-7.40;99.90
21115;DHT22;10715;48.546;9.896;2022-12-11T07:35:50;-7.50;99.90
21115;DHT22;10715;48.546;9.896;2022-12-11T07:38:16;-7.50;99.90
21115;DHT22;10715;48.546;9.896;2022-12-11T07:40:42;-7.50;99.90
21115;DHT22;10715;48.546;9.896;2022-12-11T07:43:08;-7.40;99.90
21115;DHT22;10715;48.546;9.896;2022-12-11T07:45:33;-7.30;99.90
21115;DHT22;10715;48.546;9.896;2022-12-11T07:47:59;-7.30;99.90
21115;DHT22;10715;48.546;9.896;2022-12-11T07:50:25;-7.30;99.90
21115;DHT22;10715;48.546;9.896;2022-12-11T07:52:50;-7.30;99.90
21115;DHT22;10715;48.546;9.896;2022-12-11T07:55:16;-7.30;99.90
21115;DHT22;10715;48.546;9.896;2022-12-11T07:57:42;-7.30;99.90
21115;DHT22;10715;48.546;9.896;2022-12-11T08:00:08;-7.20;99.90
21115;DHT22;10715;48.546;9.896;2022-12-11T08:02:36;-7.20;99.90
21115;DHT22;10715;48.546;9.896;2022-12-11T08:05:02;-7.20;99.90
21115;DHT22;10715;48.546;9.896;2022-12-11T08:07:28;-7.20;99.90
21115;DHT22;10715;48.546;9.896;2022-12-11T08:09:53;-7.20;99.90
21115;DHT22;10715;48.546;9.896;2022-12-11T08:12:19;-7.20;99.90
21115;DHT22;10715;48.546;9.896;2022-12-11T08:14:45;-7.10;99.90
21115;DHT22;10715;48.546;9.896;2022-12-11T08:17:10;-7.10;99.90
21115;DHT22;10715;48.546;9.896;2022-12-11T08:19:36;-7.00;99.90
21115;DHT22;10715;48.546;9.896;2022-12-11T08:22:02;-6.90;99.90
21115;DHT22;10715;48.546;9.896;2022-12-11T08:24:28;-6.90;99.90
21115;DHT22;10715;48.546;9.896;2022-12-11T08:26:53;-6.90;99.90
21115;DHT22;10715;48.546;9.896;2022-12-11T08:29:19;-6.80;99.90
21115;DHT22;10715;48.546;9.896;2022-12-11T08:31:45;-6.70;99.90
21115;DHT22;10715;48.546;9.896;2022-12-11T08:34:11;-6.60;99.90
21115;DHT22;10715;48.546;9.896;2022-12-11T08:36:38;-6.50;99.90
21115;DHT22;10715;48.546;9.896;2022-12-11T08:39:04;-6.50;99.90
21115;DHT22;10715;48.546;9.896;2022-12-11T08:41:30;-6.40;99.90
21115;DHT22;10715;48.546;9.896;2022-12-11T08:43:57;-6.30;99.90
21115;DHT22;10715;48.546;9.896;2022-12-11T08:46:26;-6.20;99.90
21115;DHT22;10715;48.546;9.896;2022-12-11T08:48:52;-6.20;99.90
21115;DHT22;10715;48.546;9.896;2022-12-11T08:51:21;-6.10;99.90
21115;DHT22;10715;48.546;9.896;2022-12-11T08:53:48;-6.00;99.90
21115;DHT22;10715;48.546;9.896;2022-12-11T08:56:16;-5.90;99.90
21115;DHT22;10715;48.546;9.896;2022-12-11T08:58:43;-5.80;99.90
21115;DHT22;10715;48.546;9.896;2022-12-11T09:01:11;-5.70;99.90
21115;DHT22;10715;48.546;9.896;2022-12-11T09:03:38;-5.50;99.90
21115;DHT22;10715;48.546;9.896;2022-12-11T09:06:10;-5.30;99.90
21115;DHT22;10715;48.546;9.896;2022-12-11T09:08:37;-5.00;99.90
21115;DHT22;10715;48.546;9.896;2022-12-11T09:11:04;-4.80;99.90
21115;DHT22;10715;48.546;9.896;2022-12-11T09:13:31;-4.50;99.90
21115;DHT22;10715;48.546;9.896;2022-12-11T09:15:57;-4.30;99.90
21115;DHT22;10715;48.546;9.896;2022-12-11T09:18:23;-4.20;99.90
21115;DHT22;10715;48.546;9.896;2022-12-11T09:21:00;-4.10;99.90
21115;DHT22;10715;48.546;9.896;2022-12-11T09:23:26;-4.00;99.90
21115;DHT22;10715;48.546;9.896;2022-12-11T09:25:53;-3.90;99.90
21115;DHT22;10715;48.546;9.896;2022-12-11T09:28:18;-3.70;99.90
21115;DHT22;10715;48.546;9.896;2022-12-11T09:30:44;-3.40;99.90
21115;DHT22;10715;48.546;9.896;2022-12-11T09:33:10;-3.20;99.90
21115;DHT22;10715;48.546;9.896;2022-12-11T09:35:36;-2.90;99.90
21115;DHT22;10715;48.546;9.896;2022-12-11T09:38:02;-2.60;99.90
21115;DHT22;10715;48.546;9.896;2022-12-11T09:40:28;-1.80;99.90
21115;DHT22;10715;48.546;9.896;2022-12-11T09:43:05;0.70;99.90
21115;DHT22;10715;48.546;9.896;2022-12-11T09:45:33;3.80;99.90
21115;DHT22;10715;48.546;9.896;2022-12-11T09:47:59;5.10;99.90
21115;DHT22;10715;48.546;9.896;2022-12-11T09:50:33;4.80;99.90
21115;DHT22;10715;48.546;9.896;2022-12-11T09:53:13;3.80;99.90
21115;DHT22;10715;48.546;9.896;2022-12-11T10:17:08;0.80;99.90
21115;DHT22;10715;48.546;9.896;2022-12-11T10:19:36;0.70;99.90
21115;DHT22;10715;48.546;9.896;2022-12-11T10:22:03;0.70;99.90
21115;DHT22;10715;48.546;9.896;2022-12-11T10:24:40;0.70;99.90
21115;DHT22;10715;48.546;9.896;2022-12-11T10:27:19;0.60;99.90
21115;DHT22;10715;48.546;9.896;2022-12-11T10:29:57;0.50;99.90
21115;DHT22;10715;48.546;9.896;2022-12-11T10:32:31;0.50;99.90
21115;DHT22;10715;48.546;9.896;2022-12-11T10:35:03;0.40;99.90
21115;DHT22;10715;48.546;9.896;2022-12-11T10:37:29;0.40;99.90
21115;DHT22;10715;48.546;9.896;2022-12-11T10:39:55;0.40;99.90
21115;DHT22;10715;48.546;9.896;2022-12-11T10:42:22;0.30;99.90
21115;DHT22;10715;48.546;9.896;2022-12-11T10:44:58;0.20;99.90
21115;DHT22;10715;48.546;9.896;2022-12-11T10:47:25;0.10;99.90
21115;DHT22;10715;48.546;9.896;2022-12-11T10:49:57;0.10;99.90
21115;DHT22;10715;48.546;9.896;2022-12-11T10:52:28;0.10;99.90
21115;DHT22;10715;48.546;9.896;2022-12-11T10:55:03;0.20;99.90
21115;DHT22;10715;48.546;9.896;2022-12-11T10:57:34;0.20;99.90
21115;DHT22;10715;48.546;9.896;2022-12-11T11:00:02;0.30;99.90
21115;DHT22;10715;48.546;9.896;2022-12-11T11:02:37;0.30;99.90
21115;DHT22;10715;48.546;9.896;2022-12-11T11:05:16;0.40;99.90
21115;DHT22;10715;48.546;9.896;2022-12-11T11:07:42;0.40;99.90
21115;DHT22;10715;48.546;9.896;2022-12-11T11:12:48;0.60;99.90
21115;DHT22;10715;48.546;9.896;2022-12-11T11:15:18;0.60;99.90
21115;DHT22;10715;48.546;9.896;2022-12-11T11:17:47;0.60;99.90
21115;DHT22;10715;48.546;9.896;2022-12-11T11:20:25;0.60;99.90
21115;DHT22;10715;48.546;9.896;2022-12-11T11:22:54;0.60;99.90
21115;DHT22;10715;48.546;9.896;2022-12-11T11:25:23;0.50;99.90
21115;DHT22;10715;48.546;9.896;2022-12-11T11:28:08;0.50;99.90
21115;DHT22;10715;48.546;9.896;2022-12-11T11:30:55;0.40;99.90
21115;DHT22;10715;48.546;9.896;2022-12-11T11:33:22;0.40;99.90
21115;DHT22;10715;48.546;9.896;2022-12-11T11:36:27;0.40;99.90
21115;DHT22;10715;48.546;9.896;2022-12-11T11:41:55;0.30;99.90
21115;DHT22;10715;48.546;9.896;2022-12-11T11:44:30;0.20;99.90
21115;DHT22;10715;48.546;9.896;2022-12-11T11:47:10;0.10;99.90
21115;DHT22;10715;48.546;9.896;2022-12-11T11:52:42;-0.10;99.90
21115;DHT22;10715;48.546;9.896;2022-12-11T11:55:47;-0.10;99.90
21115;DHT22;10715;48.546;9.896;2022-12-11T11:58:25;0.00;99.90
21115;DHT22;10715;48.546;9.896;2022-12-11T12:00:53;0.00;99.90
21115;DHT22;10715;48.546;9.896;2022-12-11T12:03:20;0.10;99.90
21115;DHT22;10715;48.546;9.896;2022-12-11T12:11:31;0.00;99.90
21115;DHT22;10715;48.546;9.896;2022-12-11T12:14:32;0.20;99.90
21115;DHT22;10715;48.546;9.896;2022-12-11T12:30:22;0.50;99.90
21115;DHT22;10715;48.546;9.896;2022-12-11T12:35:57;0.40;99.90
21115;DHT22;10715;48.546;9.896;2022-12-11T12:38:58;0.40;99.90
21115;DHT22;10715;48.546;9.896;2022-12-11T12:41:42;0.40;99.90
21115;DHT22;10715;48.546;9.896;2022-12-11T12:44:17;0.30;99.90
21115;DHT22;10715;48.546;9.896;2022-12-11T12:46:59;0.10;99.90
21115;DHT22;10715;48.546;9.896;2022-12-11T12:51:59;-0.10;99.90
21115;DHT22;10715;48.546;9.896;2022-12-11T12:54:26;-0.30;99.90
21115;DHT22;10715;48.546;9.896;2022-12-11T12:56:55;-0.30;99.90
21115;DHT22;10715;48.546;9.896;2022-12-11T12:59:23;-0.30;99.90
21115;DHT22;10715;48.546;9.896;2022-12-11T13:01:53;-0.40;99.90
21115;DHT22;10715;48.546;9.896;2022-12-11T13:07:17;-0.40;99.90
21115;DHT22;10715;48.546;9.896;2022-12-11T13:10:05;-0.40;99.90
21115;DHT22;10715;48.546;9.896;2022-12-11T13:12:44;-0.50;99.90
21115;DHT22;10715;48.546;9.896;2022-12-11T13:15:42;-0.60;99.90
21115;DHT22;10715;48.546;9.896;2022-12-11T13:18:34;-0.70;99.90
21115;DHT22;10715;48.546;9.896;2022-12-11T13:23:45;-0.80;99.90
21115;DHT22;10715;48.546;9.896;2022-12-11T13:26:11;-0.80;99.90
21115;DHT22;10715;48.546;9.896;2022-12-11T13:33:47;-0.90;99.90
21115;DHT22;10715;48.546;9.896;2022-12-11T13:36:27;-0.90;99.90
21115;DHT22;10715;48.546;9.896;2022-12-11T13:39:07;-0.90;99.90
21115;DHT22;10715;48.546;9.896;2022-12-11T13:41:45;-0.90;99.90
21115;DHT22;10715;48.546;9.896;2022-12-11T13:44:19;-0.90;99.90
21115;DHT22;10715;48.546;9.896;2022-12-11T13:46:45;-0.90;99.90
21115;DHT22;10715;48.546;9.896;2022-12-11T13:49:24;-0.90;99.90
21115;DHT22;10715;48.546;9.896;2022-12-11T13:51:54;-0.90;99.90
21115;DHT22;10715;48.546;9.896;2022-12-11T13:54:20;-0.90;99.90
21115;DHT22;10715;48.546;9.896;2022-12-11T13:59:35;-1.00;99.90
21115;DHT22;10715;48.546;9.896;2022-12-11T14:02:14;-1.10;99.90
21115;DHT22;10715;48.546;9.896;2022-12-11T14:04:42;-1.20;99.90
21115;DHT22;10715;48.546;9.896;2022-12-11T14:07:08;-1.40;99.90
21115;DHT22;10715;48.546;9.896;2022-12-11T14:09:38;-1.50;99.90
21115;DHT22;10715;48.546;9.896;2022-12-11T14:12:05;-1.70;99.90
21115;DHT22;10715;48.546;9.896;2022-12-11T14:14:38;-1.90;99.90
21115;DHT22;10715;48.546;9.896;2022-12-11T14:17:04;-2.20;99.90
21115;DHT22;10715;48.546;9.896;2022-12-11T14:19:33;-2.30;99.90
21115;DHT22;10715;48.546;9.896;2022-12-11T14:22:02;-2.50;99.90
21115;DHT22;10715;48.546;9.896;2022-12-11T14:24:29;-2.50;99.90
21115;DHT22;10715;48.546;9.896;2022-12-11T14:26:57;-2.70;99.90
21115;DHT22;10715;48.546;9.896;2022-12-11T14:29:31;-2.70;99.90
21115;DHT22;10715;48.546;9.896;2022-12-11T14:32:04;-2.80;99.90
21115;DHT22;10715;48.546;9.896;2022-12-11T14:34:44;-2.90;99.90
21115;DHT22;10715;48.546;9.896;2022-12-11T14:37:13;-2.90;99.90
21115;DHT22;10715;48.546;9.896;2022-12-11T14:42:20;-2.90;99.90
21115;DHT22;10715;48.546;9.896;2022-12-11T14:44:53;-2.90;99.90
21115;DHT22;10715;48.546;9.896;2022-12-11T14:47:26;-3.00;99.90
21115;DHT22;10715;48.546;9.896;2022-12-11T14:50:04;-3.10;99.90
21115;DHT22;10715;48.546;9.896;2022-12-11T14:52:38;-3.10;99.90
21115;DHT22;10715;48.546;9.896;2022-12-11T14:55:19;-3.20;99.90
21115;DHT22;10715;48.546;9.896;2022-12-11T14:57:47;-3.30;99.90
21115;DHT22;10715;48.546;9.896;2022-12-11T15:00:34;-3.40;99.90
21115;DHT22;10715;48.546;9.896;2022-12-11T15:03:04;-3.50;99.90
21115;DHT22;10715;48.546;9.896;2022-12-11T15:05:32;-3.50;99.90
21115;DHT22;10715;48.546;9.896;2022-12-11T15:08:01;-3.60;99.90
21115;DHT22;10715;48.546;9.896;2022-12-11T15:10:36;-3.60;99.90
21115;DHT22;10715;48.546;9.896;2022-12-11T15:13:06;-3.70;99.90
21115;DHT22;10715;48.546;9.896;2022-12-11T15:15:42;-3.70;99.90
21115;DHT22;10715;48.546;9.896;2022-12-11T15:18:22;-3.80;99.90
21115;DHT22;10715;48.546;9.896;2022-12-11T15:20:53;-3.90;99.90
21115;DHT22;10715;48.546;9.896;2022-12-11T15:23:21;-3.90;99.90
21115;DHT22;10715;48.546;9.896;2022-12-11T15:25:55;-4.00;99.90
21115;DHT22;10715;48.546;9.896;2022-12-11T15:28:33;-4.00;99.90
21115;DHT22;10715;48.546;9.896;2022-12-11T15:31:02;-3.90;99.90
21115;DHT22;10715;48.546;9.896;2022-12-11T15:33:28;-3.80;99.90
21115;DHT22;10715;48.546;9.896;2022-12-11T15:35:55;-3.70;99.90
21115;DHT22;10715;48.546;9.896;2022-12-11T15:38:38;-3.60;99.90
21115;DHT22;10715;48.546;9.896;2022-12-11T15:41:12;-3.50;99.90
21115;DHT22;10715;48.546;9.896;2022-12-11T15:43:39;-3.50;99.90
21115;DHT22;10715;48.546;9.896;2022-12-11T15:46:05;-3.40;99.90
21115;DHT22;10715;48.546;9.896;2022-12-11T15:48:32;-3.40;99.90
21115;DHT22;10715;48.546;9.896;2022-12-11T15:50:58;-3.40;99.90
21115;DHT22;10715;48.546;9.896;2022-12-11T15:53:23;-3.40;99.90
21115;DHT22;10715;48.546;9.896;2022-12-11T15:55:49;-3.40;99.90
21115;DHT22;10715;48.546;9.896;2022-12-11T15:58:20;-3.40;99.90
21115;DHT22;10715;48.546;9.896;2022-12-11T16:00:48;-3.40;99.90
21115;DHT22;10715;48.546;9.896;2022-12-11T16:03:15;-3.50;99.90
21115;DHT22;10715;48.546;9.896;2022-12-11T16:05:42;-3.60;99.90
21115;DHT22;10715;48.546;9.896;2022-12-11T16:08:16;-3.60;99.90
21115;DHT22;10715;48.546;9.896;2022-12-11T16:10:43;-3.60;99.90
21115;DHT22;10715;48.546;9.896;2022-12-11T16:13:09;-3.60;99.90
21115;DHT22;10715;48.546;9.896;2022-12-11T16:15:40;-3.70;99.90
21115;DHT22;10715;48.546;9.896;2022-12-11T16:18:20;-3.70;99.90
21115;DHT22;10715;48.546;9.896;2022-12-11T16:20:46;-3.60;99.90
21115;DHT22;10715;48.546;9.896;2022-12-11T16:23:13;-3.60;99.90
21115;DHT22;10715;48.546;9.896;2022-12-11T16:25:40;-3.60;99.90
21115;DHT22;10715;48.546;9.896;2022-12-11T16:28:07;-3.60;99.90
21115;DHT22;10715;48.546;9.896;2022-12-11T16:30:34;-3.60;99.90
21115;DHT22;10715;48.546;9.896;2022-12-11T16:33:00;-3.60;99.90
21115;DHT22;10715;48.546;9.896;2022-12-11T16:35:28;-3.70;99.90
21115;DHT22;10715;48.546;9.896;2022-12-11T16:37:54;-3.70;99.90
21115;DHT22;10715;48.546;9.896;2022-12-11T16:40:20;-3.80;99.90
21115;DHT22;10715;48.546;9.896;2022-12-11T16:42:46;-3.90;99.90
21115;DHT22;10715;48.546;9.896;2022-12-11T16:45:18;-3.90;99.90
21115;DHT22;10715;48.546;9.896;2022-12-11T16:47:44;-3.90;99.90
21115;DHT22;10715;48.546;9.896;2022-12-11T16:50:11;-3.80;99.90
21115;DHT22;10715;48.546;9.896;2022-12-11T16:52:38;-3.80;99.90
21115;DHT22;10715;48.546;9.896;2022-12-11T16:55:04;-3.80;99.90
21115;DHT22;10715;48.546;9.896;2022-12-11T16:57:30;-3.70;99.90
21115;DHT22;10715;48.546;9.896;2022-12-11T16:59:56;-3.70;99.90
21115;DHT22;10715;48.546;9.896;2022-12-11T17:02:22;-3.70;99.90
21115;DHT22;10715;48.546;9.896;2022-12-11T17:04:47;-3.70;99.90
21115;DHT22;10715;48.546;9.896;2022-12-11T17:07:14;-3.70;99.90